Time;durP1;ratioP1;P1;durP2;ratioP2;P2;SDS_P1;SDS_P2;PMS_P1;PMS_P2;Temp;Humidity;BMP_temperature;BMP_pressure;BME280_temperature;BME280_humidity;BME280_pressure;Samples;Min_cycle;Max_cycle;Signal;HPM_P1;HPM_P2
2023/01/03 04:02:06;;;;;;;0.57;0.40;;;18.10;53.80;;;;;;5109454;23;45885;-60
2023/01/03 04:04:37;;;;;;;0.50;0.50;;;18.10;53.90;;;;;;4830521;29;45436;-61
2023/01/03 04:07:02;;;;;;;0.47;0.40;;;18.10;53.90;;;;;;4864779;29;44935;-61
2023/01/03 04:09:28;;;;;;;0.90;0.50;;;18.10;53.90;;;;;;4869738;29;44906;-61
2023/01/03 04:11:53;;;;;;;0.75;0.50;;;18.10;53.80;;;;;;4887759;28;45209;-61
2023/01/03 04:14:19;;;;;;;0.45;0.40;;;18.10;53.90;;;;;;4868324;29;44930;-60
2023/01/03 04:16:44;;;;;;;0.73;0.65;;;18.10;53.90;;;;;;4868107;29;44978;-61
2023/01/03 04:19:10;;;;;;;0.80;0.63;;;18.10;53.90;;;;;;4866586;29;45076;-61
2023/01/03 04:21:35;;;;;;;0.30;0.30;;;18.10;53.90;;;;;;4872180;29;45674;-61
2023/01/03 04:24:03;;;;;;;0.50;0.40;;;18.10;53.90;;;;;;4867782;29;45214;-61
2023/01/03 04:26:28;;;;;;;0.80;0.50;;;18.10;54.00;;;;;;4872149;29;46520;-61
2023/01/03 04:28:54;;;;;;;0.40;0.40;;;18.10;53.90;;;;;;4867223;29;45529;-61
2023/01/03 04:31:20;;;;;;;0.80;0.52;;;18.10;54.00;;;;;;4868093;29;46342;-61
2023/01/03 04:33:45;;;;;;;0.68;0.60;;;18.10;54.00;;;;;;4867507;29;45285;-61
2023/01/03 04:36:11;;;;;;;0.50;0.40;;;18.00;53.90;;;;;;4856888;29;45486;-61
2023/01/03 04:38:36;;;;;;;0.50;0.50;;;18.00;53.90;;;;;;4869102;29;45524;-61
2023/01/03 04:41:06;;;;;;;0.73;0.50;;;18.00;53.90;;;;;;4847358;29;45409;-61
2023/01/03 04:46:16;;;;;;;0.38;0.38;;;18.00;53.90;;;;;;4872375;29;45007;-61
2023/01/03 04:48:41;;;;;;;0.80;0.52;;;18.00;53.90;;;;;;4870347;29;45572;-61
2023/01/03 04:51:07;;;;;;;0.50;0.50;;;18.00;53.90;;;;;;4865340;29;46187;-61
2023/01/03 04:53:32;;;;;;;0.60;0.60;;;18.00;53.90;;;;;;4869464;29;44945;-61
2023/01/03 04:55:58;;;;;;;0.57;0.50;;;18.00;53.90;;;;;;4871572;29;45614;-61
2023/01/03 04:58:23;;;;;;;0.40;0.40;;;18.00;53.90;;;;;;4868304;29;45630;-60
2023/01/03 05:00:49;;;;;;;0.35;0.35;;;18.00;54.00;;;;;;4865622;29;45346;-61
2023/01/03 05:03:14;;;;;;;0.85;0.43;;;18.00;54.00;;;;;;4866912;29;45390;-61
2023/01/03 05:05:40;;;;;;;0.40;0.40;;;17.90;53.90;;;;;;4866395;29;45039;-61
2023/01/03 05:08:08;;;;;;;0.55;0.40;;;17.90;53.90;;;;;;4866210;29;45026;-61
2023/01/03 05:10:33;;;;;;;0.57;0.47;;;17.90;53.90;;;;;;4869653;29;45421;-61
2023/01/03 05:12:59;;;;;;;0.45;0.40;;;17.90;53.90;;;;;;4868222;29;45530;-61
2023/01/03 05:15:29;;;;;;;0.40;0.40;;;17.90;53.90;;;;;;4880365;29;45464;-61
2023/01/03 05:17:54;;;;;;;0.40;0.40;;;17.90;53.90;;;;;;4866738;29;45537;-61
2023/01/03 05:25:49;;;;;;;0.40;0.40;;;17.90;54.00;;;;;;4861303;29;45245;-61
2023/01/03 05:28:16;;;;;;;0.73;0.50;;;17.90;54.00;;;;;;4855008;29;45444;-61
2023/01/03 05:30:41;;;;;;;0.52;0.40;;;17.90;54.00;;;;;;4859615;29;46147;-61
2023/01/03 05:33:07;;;;;;;0.40;0.40;;;17.90;54.00;;;;;;4870403;29;45182;-60
2023/01/03 05:35:32;;;;;;;0.47;0.40;;;17.90;54.00;;;;;;4872401;29;45444;-61
2023/01/03 05:37:58;;;;;;;0.40;0.40;;;17.90;54.00;;;;;;4852004;29;45275;-61
2023/01/03 05:40:24;;;;;;;0.50;0.43;;;17.80;54.00;;;;;;4875432;29;46781;-61
2023/01/03 05:42:49;;;;;;;0.50;0.40;;;17.80;54.00;;;;;;4856298;29;44760;-61
2023/01/03 05:45:15;;;;;;;0.40;0.30;;;17.80;54.00;;;;;;4875727;29;45126;-61
2023/01/03 05:47:40;;;;;;;0.50;0.40;;;17.80;54.00;;;;;;4872119;29;45248;-62
2023/01/03 05:50:06;;;;;;;0.45;0.40;;;17.80;54.00;;;;;;4869574;29;45521;-61
2023/01/03 05:52:32;;;;;;;0.40;0.40;;;17.80;54.00;;;;;;4869230;29;44904;-60
2023/01/03 05:54:57;;;;;;;0.50;0.40;;;17.80;54.00;;;;;;4870824;29;45267;-62
2023/01/03 05:57:23;;;;;;;1.40;0.50;;;17.80;54.00;;;;;;4865842;29;45971;-62
2023/01/03 05:59:48;;;;;;;0.50;0.40;;;17.80;54.00;;;;;;4868295;29;45241;-62
2023/01/03 06:02:14;;;;;;;0.35;0.35;;;17.80;54.00;;;;;;4870280;29;45943;-59
2023/01/03 06:04:39;;;;;;;0.65;0.60;;;17.80;54.00;;;;;;4873333;29;45273;-60
2023/01/03 06:07:05;;;;;;;0.50;0.50;;;17.80;54.10;;;;;;4867825;29;45663;-62
2023/01/03 06:09:31;;;;;;;0.35;0.35;;;17.80;54.10;;;;;;4875619;29;46694;-61
2023/01/03 06:11:56;;;;;;;0.63;0.63;;;17.80;54.10;;;;;;4869146;29;45166;-61
2023/01/03 06:14:22;;;;;;;0.40;0.40;;;17.80;54.10;;;;;;4869694;29;44733;-61
2023/01/03 06:19:31;;;;;;;0.60;0.40;;;17.70;54.00;;;;;;4862959;29;45472;-61
2023/01/03 06:21:57;;;;;;;0.80;0.55;;;17.70;54.00;;;;;;4872897;29;45769;-62
2023/01/03 06:24:22;;;;;;;1.05;0.50;;;17.70;54.00;;;;;;4864159;29;45177;-60
2023/01/03 06:26:48;;;;;;;0.45;0.43;;;17.70;54.10;;;;;;4872010;29;45322;-62
2023/01/03 06:29:14;;;;;;;0.57;0.57;;;17.70;54.10;;;;;;4868571;29;46222;-61
2023/01/03 06:31:40;;;;;;;0.40;0.40;;;17.70;54.10;;;;;;4870610;29;45511;-62
2023/01/03 06:34:06;;;;;;;0.30;0.30;;;17.70;54.10;;;;;;4861800;29;45546;-61
2023/01/03 06:36:33;;;;;;;0.63;0.50;;;17.70;54.10;;;;;;4863847;29;45548;-62
2023/01/03 06:38:58;;;;;;;0.40;0.40;;;17.60;54.10;;;;;;4868658;29;46277;-61
2023/01/03 06:41:24;;;;;;;0.60;0.40;;;17.70;54.20;;;;;;4871120;29;45511;-62
2023/01/03 06:43:50;;;;;;;0.63;0.50;;;17.60;54.10;;;;;;4870767;29;45494;-62
2023/01/03 06:54:31;;;;;;;0.60;0.50;;;17.60;54.10;;;;;;4869627;29;45533;-61
2023/01/03 06:56:57;;;;;;;0.73;0.50;;;17.60;54.10;;;;;;4850279;29;45049;-62
2023/01/03 06:59:22;;;;;;;0.40;0.40;;;17.60;54.10;;;;;;4866353;29;45549;-62
2023/01/03 07:01:48;;;;;;;0.60;0.60;;;17.60;54.10;;;;;;4853618;29;44885;-60
2023/01/03 07:04:14;;;;;;;0.50;0.50;;;17.60;54.10;;;;;;4867619;29;45458;-55
2023/01/03 07:06:39;;;;;;;0.65;0.50;;;17.60;54.10;;;;;;4874179;29;44778;-53
2023/01/03 07:09:05;;;;;;;0.50;0.50;;;17.60;54.10;;;;;;4865810;29;45198;-56
2023/01/03 07:11:31;;;;;;;0.40;0.40;;;17.70;54.00;;;;;;4869182;29;46848;-53
2023/01/03 07:13:59;;;;;;;0.50;0.40;;;17.80;53.90;;;;;;4871474;29;45600;-53
2023/01/03 07:16:29;;;;;;;0.75;0.50;;;17.90;53.70;;;;;;4869785;29;45060;-56
2023/01/03 07:18:55;;;;;;;0.40;0.40;;;18.10;53.50;;;;;;4868150;29;46351;-54
2023/01/03 07:21:22;;;;;;;1.15;0.77;;;18.30;53.30;;;;;;4872776;29;44649;-57
2023/01/03 07:23:48;;;;;;;0.28;0.28;;;18.40;53.00;;;;;;4867464;29;45406;-57
2023/01/03 07:26:13;;;;;;;0.60;0.40;;;18.60;52.90;;;;;;4871065;29;44750;-54
2023/01/03 07:28:39;;;;;;;0.30;0.30;;;18.70;52.60;;;;;;4863896;29;45511;-54
2023/01/03 07:31:05;;;;;;;0.30;0.30;;;18.90;52.50;;;;;;4873668;29;44864;-57
2023/01/03 07:33:31;;;;;;;0.40;0.40;;;19.00;52.40;;;;;;4871687;29;44991;-54
2023/01/03 07:36:09;;;;;;;0.40;0.40;;;19.20;52.20;;;;;;4866973;29;45167;-57
2023/01/03 07:38:35;;;;;;;0.40;0.40;;;19.30;52.00;;;;;;4867885;29;45854;-56
2023/01/03 07:41:01;;;;;;;0.47;0.40;;;19.40;51.90;;;;;;4860910;29;44688;-53
2023/01/03 07:43:36;;;;;;;0.57;0.40;;;19.60;51.80;;;;;;4872796;29;45737;-54
2023/01/03 07:46:21;;;;;;;0.40;0.30;;;19.70;51.70;;;;;;4873460;29;45245;-52
2023/01/03 07:48:47;;;;;;;0.30;0.30;;;19.90;51.50;;;;;;4869109;29;46578;-51
2023/01/03 07:51:14;;;;;;;0.40;0.40;;;20.00;51.40;;;;;;4866778;29;45046;-56
2023/01/03 07:53:39;;;;;;;0.50;0.40;;;20.10;51.30;;;;;;4871074;29;44971;-57
2023/01/03 07:56:13;;;;;;;0.40;0.40;;;20.20;51.10;;;;;;4874097;29;45502;-55
2023/01/03 07:58:40;;;;;;;0.43;0.40;;;20.40;51.00;;;;;;4872491;29;46498;-53
2023/01/03 08:01:10;;;;;;;0.30;0.30;;;20.50;50.80;;;;;;4870112;29;44962;-53
2023/01/03 08:03:36;;;;;;;0.43;0.35;;;20.60;50.70;;;;;;4870586;29;45678;-54
2023/01/03 08:06:06;;;;;;;0.50;0.50;;;20.70;50.60;;;;;;4875209;29;44848;-57
2023/01/03 08:08:32;;;;;;;0.32;0.32;;;20.90;50.40;;;;;;4872893;29;46158;-53
2023/01/03 08:13:42;;;;;;;0.40;0.40;;;21.00;50.30;;;;;;4866703;29;45199;-55
2023/01/03 08:16:10;;;;;;;0.50;0.47;;;21.00;50.40;;;;;;4872243;29;45178;-57
2023/01/03 08:18:36;;;;;;;0.40;0.30;;;21.00;50.40;;;;;;4868317;29;46270;-51
2023/01/03 08:21:01;;;;;;;0.28;0.28;;;21.10;50.40;;;;;;4867319;29;45479;-51
2023/01/03 08:23:28;;;;;;;0.47;0.40;;;21.20;50.30;;;;;;4867325;29;44933;-59
2023/01/03 08:25:59;;;;;;;0.47;0.40;;;21.30;50.20;;;;;;4874085;29;45475;-54
2023/01/03 08:28:24;;;;;;;0.30;0.30;;;21.40;49.90;;;;;;4873572;29;46059;-55
2023/01/03 08:30:50;;;;;;;0.20;0.20;;;21.50;49.90;;;;;;4873052;29;45464;-61
2023/01/03 08:33:16;;;;;;;1.08;0.50;;;21.60;49.70;;;;;;4868459;29;45209;-53
2023/01/03 08:35:52;;;;;;;0.30;0.30;;;21.80;49.80;;;;;;4864555;29;45333;-56
2023/01/03 08:38:20;;;;;;;0.20;0.20;;;21.80;49.50;;;;;;4862645;29;45375;-58
2023/01/03 08:40:45;;;;;;;0.40;0.40;;;21.90;49.60;;;;;;4868947;29;45440;-57
2023/01/03 08:43:11;;;;;;;0.52;0.30;;;22.00;49.50;;;;;;4868039;29;45397;-54
2023/01/03 08:45:37;;;;;;;2.53;0.32;;;22.10;49.50;;;;;;4872940;29;45379;-58
2023/01/03 08:48:02;;;;;;;0.40;0.30;;;22.10;49.30;;;;;;4870523;29;45455;-55
2023/01/03 08:50:29;;;;;;;0.40;0.38;;;22.20;49.30;;;;;;4851471;29;45588;-58
2023/01/03 08:52:55;;;;;;;0.50;0.40;;;22.30;49.20;;;;;;4874173;29;45175;-55
2023/01/03 08:55:20;;;;;;;0.40;0.40;;;22.40;49.20;;;;;;4871762;29;44863;-58
2023/01/03 08:57:46;;;;;;;1.20;0.60;;;22.40;49.00;;;;;;4849702;29;46421;-58
2023/01/03 09:00:12;;;;;;;0.30;0.30;;;22.50;48.90;;;;;;4874056;29;45556;-62
2023/01/03 09:02:38;;;;;;;0.20;0.20;;;22.60;48.90;;;;;;4871967;29;45159;-58
2023/01/03 09:05:04;;;;;;;0.20;0.20;;;22.70;48.90;;;;;;4872979;29;45468;-55
2023/01/03 09:07:29;;;;;;;0.38;0.35;;;22.80;48.80;;;;;;4869890;29;45536;-53
2023/01/03 09:09:55;;;;;;;0.43;0.32;;;22.80;48.70;;;;;;4875517;29;44833;-58
2023/01/03 09:12:20;;;;;;;0.43;0.32;;;22.90;48.60;;;;;;4854417;29;45812;-54
2023/01/03 09:14:46;;;;;;;0.30;0.30;;;23.00;48.60;;;;;;4873556;29;45334;-57
2023/01/03 09:17:11;;;;;;;0.32;0.32;;;23.00;48.40;;;;;;4871713;29;45245;-57
2023/01/03 09:19:37;;;;;;;0.30;0.30;;;23.10;48.40;;;;;;4877551;29;44969;-55
2023/01/03 09:22:02;;;;;;;0.40;0.40;;;23.20;48.30;;;;;;4870205;29;44729;-57
2023/01/03 09:24:28;;;;;;;0.30;0.30;;;23.30;48.20;;;;;;4874769;29;45408;-60
2023/01/03 09:26:53;;;;;;;0.38;0.22;;;23.30;48.10;;;;;;4870061;29;45674;-54
2023/01/03 09:29:19;;;;;;;0.28;0.28;;;23.40;48.10;;;;;;4869513;29;44842;-54
2023/01/03 09:31:44;;;;;;;0.30;0.30;;;23.50;48.00;;;;;;4870162;29;46375;-56
2023/01/03 09:34:10;;;;;;;0.20;0.20;;;23.50;48.00;;;;;;4872913;29;45357;-54
2023/01/03 09:36:37;;;;;;;0.40;0.40;;;23.60;47.90;;;;;;4868170;29;45985;-53
2023/01/03 09:39:03;;;;;;;0.50;0.40;;;23.60;47.80;;;;;;4875723;29;45437;-52
2023/01/03 09:41:29;;;;;;;0.10;0.10;;;23.60;47.70;;;;;;4875935;29;45380;-58
2023/01/03 09:43:56;;;;;;;0.47;0.40;;;23.70;47.70;;;;;;4867746;29;45573;-56
2023/01/03 09:46:26;;;;;;;0.40;0.30;;;23.70;47.70;;;;;;4871200;29;45468;-59
2023/01/03 09:48:52;;;;;;;0.20;0.20;;;23.70;47.60;;;;;;4876234;29;45403;-52
2023/01/03 10:05:39;;;;;;;0.30;0.30;;;24.00;47.40;;;;;;4872815;29;45392;-53
2023/01/03 10:08:32;;;;;;;0.30;0.30;;;24.00;46.90;;;;;;4862959;29;46994;-55
2023/01/03 10:11:06;;;;;;;0.20;0.20;;;24.00;47.20;;;;;;4873678;29;45251;-53
2023/01/03 10:13:34;;;;;;;0.77;0.30;;;24.00;47.20;;;;;;4871101;29;45202;-51
2023/01/03 10:16:18;;;;;;;0.63;0.40;;;24.10;47.30;;;;;;4870255;29;45194;-55
2023/01/03 10:19:02;;;;;;;0.20;0.20;;;24.10;47.30;;;;;;4877083;29;45050;-53
2023/01/03 10:21:44;;;;;;;0.20;0.20;;;24.10;47.20;;;;;;4875821;29;45468;-57
2023/01/03 10:24:29;;;;;;;0.40;0.32;;;24.10;47.10;;;;;;4871881;29;46600;-59
2023/01/03 10:27:02;;;;;;;0.30;0.30;;;24.10;46.90;;;;;;4869302;29;45029;-59
2023/01/03 10:29:28;;;;;;;1.25;0.25;;;24.20;47.30;;;;;;4857739;29;45670;-57
2023/01/03 10:32:09;;;;;;;0.30;0.30;;;24.20;47.20;;;;;;4867419;29;44937;-56
2023/01/03 10:34:37;;;;;;;0.20;0.20;;;24.20;46.80;;;;;;4870040;29;45084;-60
2023/01/03 10:37:16;;;;;;;0.40;0.40;;;24.30;47.10;;;;;;4872429;29;45362;-58
2023/01/03 10:39:41;;;;;;;0.35;0.32;;;24.30;47.00;;;;;;4874990;29;46304;-56
2023/01/03 10:42:07;;;;;;;0.20;0.20;;;24.30;47.00;;;;;;4871304;29;45420;-58
2023/01/03 10:44:33;;;;;;;0.47;0.40;;;24.40;47.00;;;;;;4871944;29;45122;-56
2023/01/03 10:47:09;;;;;;;0.43;0.20;;;24.40;46.90;;;;;;4871397;29;45115;-56
2023/01/03 10:49:34;;;;;;;0.30;0.30;;;24.40;46.80;;;;;;4871091;29;45645;-61
2023/01/03 10:52:13;;;;;;;0.30;0.30;;;24.40;46.80;;;;;;4871011;29;45254;-53
2023/01/03 10:54:42;;;;;;;0.57;0.30;;;24.50;46.60;;;;;;4859151;29;45260;-54
2023/01/03 10:57:47;;;;;;;0.20;0.20;;;24.50;46.70;;;;;;4875540;29;45490;-58
2023/01/03 11:00:25;;;;;;;0.43;0.20;;;24.50;46.40;;;;;;4886791;28;45551;-58
2023/01/03 11:02:51;;;;;;;0.20;0.20;;;24.50;46.50;;;;;;4868966;29;45464;-53
2023/01/03 11:05:22;;;;;;;0.25;0.25;;;24.50;46.80;;;;;;4872415;29;45658;-55
2023/01/03 11:07:54;;;;;;;0.40;0.40;;;24.50;46.70;;;;;;4855524;29;45260;-53
2023/01/03 11:10:20;;;;;;;0.35;0.32;;;24.50;46.60;;;;;;4876581;29;46522;-55
2023/01/03 11:12:45;;;;;;;0.15;0.15;;;24.50;46.70;;;;;;4839542;29;45564;-54
2023/01/03 11:15:14;;;;;;;0.30;0.28;;;24.60;46.80;;;;;;4863922;29;45930;-55
2023/01/03 11:18:03;;;;;;;0.30;0.20;;;24.50;46.60;;;;;;4878329;29;45615;-51
2023/01/03 11:20:42;;;;;;;0.20;0.20;;;24.60;46.30;;;;;;4871126;29;45605;-52
2023/01/03 11:23:24;;;;;;;0.30;0.30;;;24.60;46.60;;;;;;4858978;29;44883;-54
2023/01/03 11:25:58;;;;;;;0.30;0.20;;;24.60;46.50;;;;;;4855519;29;45403;-53
2023/01/03 11:28:42;;;;;;;0.20;0.20;;;24.60;46.50;;;;;;4875627;29;45150;-54
2023/01/03 11:31:13;;;;;;;0.20;0.20;;;24.60;46.60;;;;;;4855629;29;45789;-58
2023/01/03 11:33:54;;;;;;;0.30;0.30;;;24.60;47.20;;;;;;4873881;29;45225;-53
2023/01/03 11:36:39;;;;;;;0.20;0.20;;;24.60;46.40;;;;;;4874231;29;45042;-54
2023/01/03 11:39:31;;;;;;;0.85;0.35;;;24.60;46.50;;;;;;4876612;29;45294;-63
2023/01/03 11:42:10;;;;;;;0.25;0.25;;;24.70;46.10;;;;;;4853721;29;46667;-64
2023/01/03 11:45:10;;;;;;;0.28;0.20;;;24.70;46.30;;;;;;4866080;29;45563;-64
2023/01/03 11:48:05;;;;;;;0.20;0.20;;;24.80;46.10;;;;;;4854131;29;44936;-64
2023/01/03 11:50:52;;;;;;;0.30;0.30;;;24.80;45.90;;;;;;4857149;29;45168;-64
2023/01/03 11:53:28;;;;;;;0.40;0.20;;;24.90;45.90;;;;;;4857636;29;47488;-64
2023/01/03 11:56:16;;;;;;;0.20;0.20;;;24.90;46.10;;;;;;4868341;29;45515;-62
2023/01/03 11:58:46;;;;;;;0.20;0.20;;;25.00;45.80;;;;;;4873700;29;45306;-65
2023/01/03 12:01:21;;;;;;;0.30;0.30;;;24.90;46.00;;;;;;4870227;29;45333;-64
2023/01/03 12:03:54;;;;;;;0.28;0.20;;;25.00;45.90;;;;;;4855148;29;45934;-63
2023/01/03 12:06:39;;;;;;;0.22;0.20;;;25.10;45.90;;;;;;4875543;29;45368;-63
2023/01/03 12:09:19;;;;;;;0.20;0.20;;;25.10;45.60;;;;;;4874197;29;45278;-63
2023/01/03 12:12:13;;;;;;;0.10;0.10;;;25.10;45.80;;;;;;4876524;29;45349;-63
2023/01/03 12:14:40;;;;;;;;;;;25.10;45.60;;;;;;4872243;29;45418;-65
2023/01/03 12:17:14;;;;;;;0.13;0.13;;;25.10;45.40;;;;;;4874261;29;44677;-64
2023/01/03 12:19:48;;;;;;;0.77;0.25;;;25.20;45.90;;;;;;4859130;29;45358;-64
2023/01/03 12:22:28;;;;;;;0.52;0.20;;;25.20;45.70;;;;;;4874035;29;45290;-63
2023/01/03 12:25:20;;;;;;;0.30;0.20;;;25.20;45.70;;;;;;4870685;29;46794;-65
2023/01/03 12:27:53;;;;;;;0.00;0.00;;;25.30;45.50;;;;;;4876035;29;45290;-65
2023/01/03 12:30:39;;;;;;;0.20;0.20;;;25.30;45.60;;;;;;4856137;29;45268;-64
2023/01/03 12:33:19;;;;;;;0.55;0.20;;;25.30;45.50;;;;;;4870721;29;45635;-64
2023/01/03 12:35:58;;;;;;;0.22;0.22;;;25.30;45.70;;;;;;4868075;29;45426;-64
2023/01/03 12:38:27;;;;;;;0.30;0.15;;;25.40;45.50;;;;;;4874070;29;44809;-63
2023/01/03 12:41:00;;;;;;;0.13;0.10;;;25.40;45.80;;;;;;4872568;29;45444;-63
2023/01/03 12:43:32;;;;;;;0.17;0.17;;;25.40;45.60;;;;;;4858420;29;45211;-62
2023/01/03 12:46:00;;;;;;;0.40;0.33;;;25.40;45.70;;;;;;4868303;29;45808;-63
2023/01/03 12:48:37;;;;;;;1.05;0.22;;;25.50;45.70;;;;;;4870543;29;45215;-65
2023/01/03 12:51:03;;;;;;;0.20;0.20;;;25.40;45.60;;;;;;4873742;29;45370;-63
2023/01/03 12:53:53;;;;;;;0.30;0.30;;;25.50;45.70;;;;;;4873820;29;45226;-64
2023/01/03 12:56:33;;;;;;;0.30;0.28;;;25.50;45.40;;;;;;4874849;29;45346;-63
2023/01/03 12:59:17;;;;;;;0.15;0.15;;;25.50;45.30;;;;;;4873137;29;45237;-62
2023/01/03 13:01:45;;;;;;;0.30;0.25;;;25.50;45.60;;;;;;4873020;29;45257;-62
2023/01/03 13:04:18;;;;;;;1.08;0.22;;;25.50;45.50;;;;;;4870943;29;45053;-63
2023/01/03 13:06:50;;;;;;;0.30;0.25;;;25.60;45.40;;;;;;4871535;29;47645;-62
2023/01/03 13:09:41;;;;;;;0.95;0.17;;;25.60;45.50;;;;;;4874240;29;44654;-64
2023/01/03 13:12:14;;;;;;;0.30;0.30;;;25.60;45.30;;;;;;4853607;29;45512;-63
2023/01/03 13:15:01;;;;;;;0.20;0.20;;;25.60;45.50;;;;;;4870219;29;45191;-63
2023/01/03 13:17:28;;;;;;;0.40;0.20;;;25.60;45.10;;;;;;4872563;29;45359;-63
2023/01/03 13:19:55;;;;;;;0.22;0.20;;;25.70;45.50;;;;;;4872170;29;46465;-64
2023/01/03 13:22:27;;;;;;;0.20;0.20;;;25.70;45.50;;;;;;4871776;29;45556;-64
2023/01/03 13:24:54;;;;;;;0.28;0.25;;;25.70;45.50;;;;;;4869038;29;46379;-63
2023/01/03 13:27:23;;;;;;;0.22;0.20;;;25.70;45.40;;;;;;4857796;29;46254;-63
2023/01/03 13:29:49;;;;;;;0.35;0.32;;;25.70;45.40;;;;;;4869756;29;45141;-65
2023/01/03 13:32:18;;;;;;;0.28;0.28;;;25.70;45.40;;;;;;4868072;29;45295;-63
2023/01/03 13:34:44;;;;;;;0.13;0.13;;;25.70;45.40;;;;;;4875899;29;45506;-64
2023/01/03 13:37:13;;;;;;;0.40;0.30;;;25.80;45.40;;;;;;4857409;29;45614;-62
2023/01/03 13:39:39;;;;;;;0.15;0.15;;;25.80;45.40;;;;;;4872767;29;45139;-63
2023/01/03 13:42:05;;;;;;;0.10;0.10;;;25.80;45.40;;;;;;4876389;29;45195;-64
2023/01/03 13:44:30;;;;;;;0.30;0.30;;;25.80;45.30;;;;;;4860902;29;45342;-62
2023/01/03 13:46:56;;;;;;;2.08;0.22;;;25.80;45.30;;;;;;4872201;29;45631;-63
2023/01/03 13:49:25;;;;;;;0.55;0.30;;;25.80;45.30;;;;;;4877324;29;45378;-63
2023/01/03 13:51:52;;;;;;;0.28;0.28;;;25.80;45.30;;;;;;4876771;29;44766;-60
2023/01/03 13:54:18;;;;;;;1.05;0.30;;;25.90;45.40;;;;;;4871397;29;45429;-62
2023/01/03 13:56:43;;;;;;;0.35;0.20;;;25.90;45.40;;;;;;4873080;29;45186;-64
2023/01/03 13:59:18;;;;;;;0.30;0.28;;;25.90;45.40;;;;;;4875815;29;45377;-63
2023/01/03 14:01:49;;;;;;;0.20;0.20;;;25.90;45.20;;;;;;4875693;29;45312;-63
2023/01/03 14:04:26;;;;;;;0.38;0.30;;;25.90;45.30;;;;;;4858230;29;44895;-64
2023/01/03 14:07:08;;;;;;;0.35;0.20;;;25.90;45.30;;;;;;4876741;29;46262;-63
2023/01/03 14:09:55;;;;;;;0.20;0.20;;;25.90;45.00;;;;;;4875438;29;45297;-64
2023/01/03 14:12:59;;;;;;;2.25;0.70;;;25.90;45.30;;;;;;4877451;29;45127;-63
2023/01/03 14:15:24;;;;;;;0.38;0.20;;;25.90;45.00;;;;;;4859249;29;44952;-63
2023/01/03 14:17:53;;;;;;;0.50;0.40;;;25.90;45.30;;;;;;4875147;29;45228;-63
2023/01/03 14:20:26;;;;;;;0.20;0.20;;;26.00;45.40;;;;;;4864327;29;45309;-65
2023/01/03 14:22:52;;;;;;;0.10;0.10;;;26.00;45.80;;;;;;4847747;29;45245;-64
2023/01/03 14:25:35;;;;;;;0.32;0.30;;;26.00;45.30;;;;;;4860270;29;44770;-64
2023/01/03 14:28:25;;;;;;;0.10;0.10;;;26.00;45.00;;;;;;4873407;29;45977;-63
2023/01/03 14:30:53;;;;;;;0.40;0.20;;;26.00;45.20;;;;;;4871736;29;45303;-64
2023/01/03 14:33:25;;;;;;;0.20;0.20;;;26.00;45.20;;;;;;4871674;29;45270;-63
2023/01/03 14:36:04;;;;;;;0.13;0.13;;;26.00;45.30;;;;;;4868730;29;45311;-64
2023/01/03 14:38:30;;;;;;;0.20;0.20;;;26.00;45.00;;;;;;4874939;29;45120;-64
2023/01/03 14:40:56;;;;;;;0.20;0.20;;;26.00;45.20;;;;;;4865143;29;44730;-63
2023/01/03 14:43:24;;;;;;;0.30;0.30;;;26.10;45.20;;;;;;4873640;29;44981;-64
2023/01/03 14:46:06;;;;;;;0.22;0.20;;;26.10;45.40;;;;;;4872236;29;45512;-63
2023/01/03 14:48:32;;;;;;;0.35;0.30;;;26.10;45.10;;;;;;4876407;29;45044;-64
2023/01/03 14:51:01;;;;;;;0.50;0.30;;;26.10;45.20;;;;;;4876935;29;45236;-64
2023/01/03 14:53:27;;;;;;;0.45;0.30;;;26.10;45.10;;;;;;4875190;29;45474;-64
2023/01/03 14:55:54;;;;;;;0.70;0.40;;;26.10;45.20;;;;;;4878283;29;45365;-64
2023/01/03 14:58:32;;;;;;;0.68;0.30;;;26.10;45.20;;;;;;4872265;29;45510;-64
2023/01/03 15:01:02;;;;;;;0.40;0.40;;;26.10;45.10;;;;;;4878085;29;44740;-63
2023/01/03 15:03:30;;;;;;;0.20;0.20;;;26.10;45.20;;;;;;4871077;29;45190;-63
2023/01/03 15:05:59;;;;;;;0.73;0.40;;;26.20;45.20;;;;;;4863175;29;44944;-64
2023/01/03 15:08:30;;;;;;;0.30;0.30;;;26.20;45.10;;;;;;4875558;29;45472;-63
2023/01/03 15:11:02;;;;;;;0.20;0.20;;;26.20;45.10;;;;;;4868662;29;45239;-63
2023/01/03 15:13:37;;;;;;;0.20;0.20;;;26.20;45.10;;;;;;4875219;29;45474;-63
2023/01/03 15:16:04;;;;;;;0.15;0.15;;;26.20;45.20;;;;;;4891715;28;45278;-63
2023/01/03 15:18:35;;;;;;;0.65;0.32;;;26.20;45.20;;;;;;4869460;29;46187;-65
2023/01/03 15:21:01;;;;;;;0.32;0.20;;;26.20;45.20;;;;;;4851841;29;45160;-64
2023/01/03 15:23:33;;;;;;;0.35;0.20;;;26.30;45.20;;;;;;4875494;29;45131;-64
2023/01/03 15:25:58;;;;;;;0.20;0.15;;;26.30;45.00;;;;;;4858260;29;45189;-64
2023/01/03 15:28:37;;;;;;;0.20;0.20;;;26.30;45.10;;;;;;4872326;29;45151;-65
2023/01/03 15:31:35;;;;;;;0.30;0.30;;;26.30;45.00;;;;;;4871568;29;45155;-64
2023/01/03 15:34:08;;;;;;;0.20;0.20;;;26.30;44.80;;;;;;4891347;28;46083;-64
2023/01/03 15:36:34;;;;;;;0.47;0.10;;;26.30;45.10;;;;;;4873117;29;45190;-64
2023/01/03 15:38:59;;;;;;;0.20;0.20;;;26.30;45.00;;;;;;4875605;29;45559;-63
2023/01/03 15:44:21;;;;;;;0.28;0.20;;;26.40;45.00;;;;;;4875543;29;45191;-65
2023/01/03 15:46:48;;;;;;;0.13;0.13;;;26.40;45.00;;;;;;4872201;29;45298;-63
2023/01/03 15:49:15;;;;;;;0.22;0.20;;;26.40;45.10;;;;;;4858392;29;46990;-63
2023/01/03 15:51:41;;;;;;;0.50;0.30;;;26.40;45.10;;;;;;4875705;29;45182;-64
2023/01/03 15:54:14;;;;;;;0.52;0.20;;;26.40;45.10;;;;;;4874228;29;46222;-64
2023/01/03 15:57:04;;;;;;;0.35;0.30;;;26.40;45.00;;;;;;4873125;29;44884;-63
2023/01/03 15:59:32;;;;;;;0.30;0.20;;;26.40;44.70;;;;;;4866848;29;45575;-63
2023/01/03 16:01:57;;;;;;;0.25;0.20;;;26.30;45.10;;;;;;4858040;29;45164;-62
2023/01/03 16:04:23;;;;;;;0.35;0.30;;;26.10;45.10;;;;;;4860521;29;45307;-62
2023/01/03 16:06:48;;;;;;;1.30;0.28;;;26.00;45.30;;;;;;4859286;29;45620;-63
2023/01/03 16:09:14;;;;;;;0.35;0.30;;;25.90;45.40;;;;;;4872122;29;46306;-63
2023/01/03 16:11:40;;;;;;;0.73;0.20;;;25.80;45.70;;;;;;4876439;29;45161;-63
2023/01/03 16:14:17;;;;;;;0.45;0.45;;;25.70;45.80;;;;;;4874153;29;45382;-62
2023/01/03 16:16:44;;;;;;;0.75;0.30;;;25.60;45.80;;;;;;4852121;29;45705;-63
2023/01/03 16:19:18;;;;;;;0.17;0.17;;;25.50;46.10;;;;;;4872533;29;45758;-62
2023/01/03 16:21:44;;;;;;;0.30;0.20;;;25.40;46.20;;;;;;4876373;29;45372;-62
2023/01/03 16:24:14;;;;;;;0.17;0.10;;;25.30;46.30;;;;;;4874636;29;46307;-62
2023/01/03 16:26:40;;;;;;;0.43;0.20;;;25.20;46.40;;;;;;4871714;29;44842;-63
2023/01/03 16:29:05;;;;;;;0.30;0.30;;;25.10;46.40;;;;;;4875336;29;45715;-63
2023/01/03 16:31:31;;;;;;;0.40;0.30;;;25.10;46.60;;;;;;4872877;29;44812;-63
2023/01/03 16:33:57;;;;;;;0.30;0.20;;;25.00;46.60;;;;;;4873172;29;45206;-63
2023/01/03 16:36:39;;;;;;;0.30;0.20;;;24.90;46.80;;;;;;4859706;29;45320;-62
2023/01/03 16:39:13;;;;;;;0.52;0.40;;;24.80;46.80;;;;;;4859513;29;45950;-62
2023/01/03 16:41:39;;;;;;;0.47;0.28;;;24.80;46.90;;;;;;4869478;29;44736;-63
2023/01/03 16:44:04;;;;;;;0.13;0.13;;;24.70;47.00;;;;;;4870658;29;44758;-62
2023/01/03 16:46:30;;;;;;;0.30;0.20;;;24.60;47.10;;;;;;4856476;29;45500;-61
2023/01/03 16:48:56;;;;;;;0.35;0.32;;;24.50;47.20;;;;;;4870794;29;46578;-62
2023/01/03 16:51:29;;;;;;;0.55;0.30;;;24.50;47.30;;;;;;4871669;29;45773;-62
2023/01/03 16:53:55;;;;;;;0.40;0.20;;;24.40;47.40;;;;;;4867776;29;45402;-61
2023/01/03 16:56:21;;;;;;;0.30;0.30;;;24.40;47.50;;;;;;4852469;29;44975;-61
2023/01/03 16:58:47;;;;;;;0.63;0.35;;;24.30;47.50;;;;;;4870890;29;45717;-63
2023/01/03 17:01:13;;;;;;;0.82;0.38;;;24.20;47.50;;;;;;4871577;29;45362;-63
2023/01/03 17:03:39;;;;;;;0.40;0.17;;;24.20;47.60;;;;;;4867505;29;44682;-62
2023/01/03 17:06:05;;;;;;;1.75;0.60;;;24.10;47.70;;;;;;4869373;29;45540;-63
2023/01/03 17:08:38;;;;;;;0.43;0.30;;;24.10;47.80;;;;;;4870560;29;46248;-62
2023/01/03 17:11:04;;;;;;;0.20;0.10;;;24.00;47.90;;;;;;4854820;29;45275;-62
2023/01/03 17:13:39;;;;;;;1.10;0.30;;;23.90;48.00;;;;;;4874691;29;45351;-62
2023/01/03 17:16:09;;;;;;;0.50;0.40;;;23.90;48.20;;;;;;4872247;29;44839;-63
2023/01/03 17:18:40;;;;;;;1.17;0.40;;;23.80;48.10;;;;;;4874020;29;45326;-63
2023/01/03 17:21:24;;;;;;;0.70;0.40;;;23.70;48.20;;;;;;4873460;29;45151;-63
2023/01/03 17:24:03;;;;;;;2.20;0.30;;;23.70;48.30;;;;;;4872485;29;45515;-64
2023/01/03 17:26:30;;;;;;;0.65;0.50;;;23.60;48.30;;;;;;4835017;29;45202;-63
2023/01/03 17:28:56;;;;;;;0.35;0.30;;;23.50;48.40;;;;;;4870309;29;45562;-62
2023/01/03 17:31:23;;;;;;;0.55;0.38;;;23.50;48.50;;;;;;4867305;29;45083;-62
2023/01/03 17:33:49;;;;;;;0.30;0.30;;;23.40;48.60;;;;;;4865836;29;45568;-62
2023/01/03 17:36:19;;;;;;;0.77;0.35;;;23.40;48.60;;;;;;4869669;29;45498;-62
2023/01/03 17:38:44;;;;;;;0.30;0.30;;;23.30;48.70;;;;;;4857421;29;45455;-63
2023/01/03 17:41:18;;;;;;;0.70;0.55;;;23.30;48.80;;;;;;4872011;29;45880;-62
2023/01/03 17:43:44;;;;;;;0.30;0.30;;;23.30;48.90;;;;;;4867256;29;45069;-63